createdAt,value
2019-02-22T00:00:11.721Z,18.20
2019-02-22T00:02:43.705Z,18.67
2019-02-22T00:05:15.725Z,19.33
2019-02-22T00:07:47.700Z,19.47
2019-02-22T00:10:19.690Z,18.20
2019-02-22T00:12:51.686Z,19.10
2019-02-22T00:15:23.647Z,19.97
2019-02-22T00:17:55.654Z,17.90
2019-02-22T00:20:27.622Z,18.53
2019-02-22T00:22:59.623Z,18.83
2019-02-22T00:25:31.572Z,19.80
2019-02-22T00:28:03.591Z,20.40
2019-02-22T00:30:35.537Z,18.37
2019-02-22T00:33:07.541Z,18.47
2019-02-22T00:35:39.530Z,21.47
2019-02-22T00:38:11.526Z,22.33
2019-02-22T00:40:43.497Z,19.27
2019-02-22T00:43:15.483Z,19.47
2019-02-22T00:45:47.441Z,19.87
2019-02-22T00:48:19.415Z,19.07
2019-02-22T00:50:51.393Z,20.07
2019-02-22T00:53:23.381Z,18.30
2019-02-22T00:55:55.365Z,18.87
2019-02-22T00:58:27.359Z,20.73
2019-02-22T01:00:59.328Z,20.30
2019-02-22T01:03:31.296Z,18.83
2019-02-22T01:06:03.268Z,20.53
2019-02-22T01:08:35.252Z,21.87
2019-02-22T01:11:07.224Z,20.77
2019-02-22T01:13:39.244Z,22.37
2019-02-22T01:16:11.202Z,22.17
2019-02-22T01:18:43.211Z,20.47
2019-02-22T01:21:15.205Z,20.63
2019-02-22T01:23:48.364Z,19.03
2019-02-22T01:26:20.250Z,18.53
2019-02-22T01:28:52.236Z,19.00
2019-02-22T01:31:24.208Z,21.23
2019-02-22T01:33:56.263Z,19.73
2019-02-22T01:36:28.233Z,20.40
2019-02-22T01:39:00.217Z,23.43
2019-02-22T01:41:32.172Z,21.83
2019-02-22T01:44:04.160Z,24.93
2019-02-22T01:46:36.134Z,24.80
2019-02-22T01:49:08.129Z,23.73
2019-02-22T01:51:40.077Z,25.23
2019-02-22T01:54:12.074Z,23.17
2019-02-22T01:56:44.004Z,22.67
2019-02-22T01:59:16.834Z,23.87
2019-02-22T02:01:48.798Z,22.30
2019-02-22T02:04:20.804Z,23.20
2019-02-22T02:06:52.744Z,23.63
2019-02-22T02:09:24.740Z,22.07
2019-02-22T02:11:56.674Z,23.60
2019-02-22T02:14:28.653Z,23.23
2019-02-22T02:17:00.608Z,23.23
2019-02-22T02:19:32.607Z,23.17
2019-02-22T02:22:04.575Z,22.27
2019-02-22T02:24:36.554Z,21.50
2019-02-22T02:27:08.506Z,21.27
2019-02-22T02:29:40.488Z,20.83
2019-02-22T02:32:12.480Z,19.53
2019-02-22T02:34:44.438Z,21.33
2019-02-22T02:37:16.464Z,21.27
2019-02-22T02:39:48.429Z,21.10
2019-02-22T02:42:20.461Z,21.17
2019-02-22T02:44:52.429Z,20.67
2019-02-22T02:47:24.427Z,18.33
2019-02-22T02:49:56.401Z,18.77
2019-02-22T02:52:28.388Z,19.00
2019-02-22T02:55:00.487Z,17.87
2019-02-22T02:57:32.401Z,19.50
2019-02-22T03:00:06.579Z,20.00
2019-02-22T03:02:38.553Z,21.17
2019-02-22T03:05:10.503Z,20.03
2019-02-22T03:07:46.334Z,18.97
2019-02-22T03:10:18.299Z,21.93
2019-02-22T03:12:50.296Z,22.50
2019-02-22T03:15:22.244Z,22.33
2019-02-22T03:17:54.263Z,24.13
2019-02-22T03:20:26.245Z,23.27
2019-02-22T03:22:58.231Z,21.40
2019-02-22T03:25:30.193Z,20.63
2019-02-22T03:28:02.196Z,18.63
2019-02-22T03:30:34.139Z,20.80
2019-02-22T03:33:06.121Z,19.23
2019-02-22T03:35:38.083Z,17.57
2019-02-22T03:38:10.075Z,19.17
2019-02-22T03:40:42.025Z,19.80
2019-02-22T03:43:14.006Z,22.80
2019-02-22T03:45:46.021Z,23.33
2019-02-22T03:48:17.978Z,28.93
2019-02-22T03:50:49.940Z,29.03
2019-02-22T03:53:28.507Z,32.20
2019-02-22T03:56:00.414Z,34.17
2019-02-22T03:58:32.602Z,33.60
2019-02-22T04:01:04.601Z,30.43
2019-02-22T04:03:36.635Z,33.53
2019-02-22T04:06:08.593Z,33.73
2019-02-22T04:08:40.597Z,32.50
2019-02-22T04:11:12.564Z,31.20
2019-02-22T04:13:44.561Z,37.20
2019-02-22T04:16:16.532Z,37.07
2019-02-22T04:18:48.533Z,34.20
2019-02-22T04:21:20.534Z,35.33
2019-02-22T04:23:52.640Z,34.40
2019-02-22T04:26:24.578Z,38.97
2019-02-22T04:28:56.553Z,40.60
2019-02-22T04:31:28.511Z,42.70
2019-02-22T04:34:00.511Z,42.77
2019-02-22T04:36:32.494Z,36.77
2019-02-22T04:39:04.867Z,39.40
2019-02-22T04:41:36.866Z,38.37
2019-02-22T04:44:08.840Z,40.97
2019-02-22T04:46:40.792Z,37.63
2019-02-22T04:49:12.786Z,43.20
2019-02-22T04:51:44.801Z,45.63
2019-02-22T04:54:16.856Z,44.93
2019-02-22T04:56:48.805Z,43.30
2019-02-22T04:59:20.815Z,45.40
2019-02-22T05:01:52.809Z,45.33
2019-02-22T05:04:24.834Z,46.27
2019-02-22T05:06:56.850Z,44.83
2019-02-22T05:09:28.894Z,45.53
2019-02-22T05:12:10.446Z,45.40
2019-02-22T05:14:34.796Z,46.60
2019-02-22T05:17:06.762Z,49.90
2019-02-22T05:19:38.751Z,47.57
2019-02-22T05:22:10.791Z,42.40
2019-02-22T05:24:42.812Z,49.87
2019-02-22T05:27:14.809Z,47.03
2019-02-22T05:29:46.770Z,48.50
2019-02-22T05:32:18.789Z,44.20
2019-02-22T05:34:50.843Z,46.90
2019-02-22T05:37:22.952Z,49.13
2019-02-22T05:39:54.939Z,50.00
2019-02-22T05:42:28.682Z,45.90
2019-02-22T05:45:00.868Z,51.90
2019-02-22T05:47:33.938Z,50.37
2019-02-22T05:50:05.918Z,47.03
2019-02-22T05:52:37.918Z,50.67
2019-02-22T05:55:09.997Z,48.57
2019-02-22T05:57:41.972Z,46.97
2019-02-22T06:00:14.853Z,51.63
2019-02-22T06:02:47.153Z,54.20
2019-02-22T06:05:19.192Z,52.57
2019-02-22T06:07:51.201Z,48.53
2019-02-22T06:10:23.179Z,50.97
2019-02-22T06:12:55.187Z,48.37
2019-02-22T06:15:27.176Z,53.47
2019-02-22T06:17:59.171Z,53.27
2019-02-22T06:20:31.141Z,52.33
2019-02-22T06:23:03.287Z,51.77
2019-02-22T06:25:35.301Z,53.27
2019-02-22T06:28:07.273Z,47.90
2019-02-22T06:30:39.263Z,56.13
2019-02-22T06:33:11.249Z,56.20
2019-02-22T06:35:43.217Z,55.13
2019-02-22T06:38:15.207Z,54.70
2019-02-22T06:40:48.255Z,54.33
2019-02-22T06:43:20.319Z,54.00
2019-02-22T06:45:52.293Z,54.80
2019-02-22T06:48:24.310Z,54.50
2019-02-22T06:50:56.304Z,54.07
2019-02-22T06:53:28.270Z,52.57
2019-02-22T06:56:00.279Z,56.23
2019-02-22T06:58:32.351Z,61.47
2019-02-22T07:01:04.366Z,55.47
2019-02-22T07:03:36.332Z,59.43
2019-02-22T07:06:08.334Z,60.73
2019-02-22T07:08:40.305Z,58.97
2019-02-22T07:11:19.975Z,56.33
2019-02-22T07:13:51.941Z,61.13
2019-02-22T07:16:23.990Z,60.03
2019-02-22T07:18:56.049Z,68.13
2019-02-22T07:21:38.844Z,63.63
2019-02-22T07:24:02.733Z,62.80
2019-02-22T07:26:34.985Z,56.10
2019-02-22T07:29:06.960Z,58.40
2019-02-22T07:31:38.966Z,65.77
2019-02-22T07:34:10.928Z,62.43
2019-02-22T07:36:42.920Z,60.60
2019-02-22T07:39:14.905Z,62.00
2019-02-22T07:41:46.903Z,65.77
2019-02-22T07:44:18.892Z,65.40
2019-02-22T07:46:50.998Z,62.97
2019-02-22T07:49:24.959Z,64.20
2019-02-22T07:51:57.003Z,65.90
2019-02-22T07:54:28.966Z,65.93
2019-02-22T07:57:01.001Z,63.77
2019-02-22T07:59:32.970Z,59.97
2019-02-22T08:02:05.177Z,68.23
2019-02-22T08:04:37.145Z,71.27
2019-02-22T08:07:09.157Z,65.60
2019-02-22T08:09:41.189Z,66.10
2019-02-22T08:12:13.217Z,69.00
2019-02-22T08:14:45.269Z,68.70
2019-02-22T08:17:17.287Z,68.67
2019-02-22T08:19:49.276Z,71.83
2019-02-22T08:22:21.328Z,69.13
2019-02-22T08:24:53.332Z,65.77
2019-02-22T08:27:25.330Z,74.83
2019-02-22T08:29:57.329Z,67.53
2019-02-22T08:32:29.342Z,66.13
2019-02-22T08:35:01.325Z,64.87
2019-02-22T08:37:33.322Z,69.30
2019-02-22T08:40:06.258Z,66.17
2019-02-22T08:42:38.245Z,69.23
2019-02-22T08:45:10.232Z,65.73
2019-02-22T08:47:42.257Z,64.30
2019-02-22T08:50:14.643Z,67.77
2019-02-22T08:52:47.050Z,65.50
2019-02-22T08:55:19.098Z,68.50
2019-02-22T08:57:51.110Z,66.27
2019-02-22T09:00:23.064Z,62.33
2019-02-22T09:02:55.082Z,63.00
2019-02-22T09:05:27.082Z,65.50
2019-02-22T09:07:59.109Z,56.83
2019-02-22T09:10:31.072Z,61.70
2019-02-22T09:13:03.166Z,57.77
2019-02-22T09:15:35.175Z,56.83
2019-02-22T09:18:07.174Z,58.40
2019-02-22T09:20:39.190Z,55.90
2019-02-22T09:23:11.238Z,51.47
2019-02-22T09:25:43.225Z,49.90
2019-02-22T09:28:15.232Z,52.97
2019-02-22T09:30:47.271Z,55.93
2019-02-22T09:33:19.218Z,54.60
2019-02-22T09:35:51.264Z,51.67
2019-02-22T09:38:23.229Z,54.90
2019-02-22T09:40:55.225Z,54.97
2019-02-22T09:43:27.202Z,54.33
2019-02-22T09:45:59.189Z,50.70
2019-02-22T09:48:31.166Z,52.97
2019-02-22T09:51:03.171Z,49.53
2019-02-22T09:53:35.131Z,41.47
2019-02-22T09:56:07.117Z,40.17
2019-02-22T09:58:39.082Z,35.53
2019-02-22T10:01:11.083Z,38.27
2019-02-22T10:03:43.052Z,38.03
2019-02-22T10:06:15.061Z,38.30
2019-02-22T10:08:47.043Z,40.07
2019-02-22T10:11:19.031Z,37.07
2019-02-22T10:13:51.008Z,34.80
2019-02-22T10:16:23.019Z,33.50
2019-02-22T10:18:54.968Z,27.03
2019-02-22T10:21:26.980Z,31.17
2019-02-22T10:23:58.934Z,32.40
2019-02-22T10:26:30.969Z,30.57
2019-02-22T10:29:02.921Z,30.07
2019-02-22T10:31:34.923Z,30.10
2019-02-22T10:34:06.883Z,30.70
2019-02-22T10:36:45.111Z,26.70
2019-02-22T10:39:12.788Z,25.90
2019-02-22T10:41:44.793Z,27.73
2019-02-22T10:44:17.944Z,30.83
2019-02-22T10:46:50.138Z,29.97
2019-02-22T10:49:22.207Z,27.83
2019-02-22T10:51:54.230Z,28.73
2019-02-22T10:54:26.221Z,27.40
2019-02-22T10:56:58.218Z,23.30
2019-02-22T10:59:30.207Z,24.70
2019-02-22T11:02:02.218Z,21.23
2019-02-22T11:04:34.215Z,22.40
2019-02-22T11:07:06.226Z,19.27
2019-02-22T11:09:38.217Z,23.27
2019-02-22T11:12:10.306Z,22.33
2019-02-22T11:14:42.306Z,21.10
2019-02-22T11:17:14.266Z,25.13
2019-02-22T11:19:46.268Z,21.07
2019-02-22T11:22:18.314Z,19.73
2019-02-22T11:25:09.872Z,21.80
2019-02-22T11:28:22.891Z,20.80
2019-02-22T11:30:54.886Z,20.40
2019-02-22T11:33:26.842Z,20.87
2019-02-22T11:35:58.803Z,20.53
2019-02-22T11:38:30.816Z,20.33
2019-02-22T11:41:43.654Z,19.40
2019-02-22T11:44:15.682Z,16.23
2019-02-22T11:46:47.744Z,15.57
2019-02-22T11:49:19.781Z,15.07
2019-02-22T11:51:51.782Z,14.67
2019-02-22T11:54:23.801Z,15.10
2019-02-22T11:56:55.849Z,16.67
2019-02-22T11:59:27.871Z,14.40
2019-02-22T12:02:01.105Z,15.23
2019-02-22T12:04:33.140Z,13.90
2019-02-22T12:07:06.381Z,13.83
2019-02-22T12:09:39.455Z,12.93
2019-02-22T12:12:11.488Z,14.47
2019-02-22T12:14:51.155Z,13.77
2019-02-22T12:17:17.555Z,13.27
2019-02-22T12:19:50.643Z,11.77
2019-02-22T12:22:22.642Z,12.80
2019-02-22T12:24:54.631Z,12.73
2019-02-22T12:27:26.677Z,13.90
2019-02-22T12:29:58.715Z,14.30
2019-02-22T12:32:30.754Z,14.40
2019-02-22T12:35:03.129Z,13.93
2019-02-22T12:37:35.205Z,15.30
2019-02-22T12:40:08.010Z,13.93
2019-02-22T12:42:40.008Z,15.63
2019-02-22T12:45:12.067Z,16.70
2019-02-22T12:47:44.074Z,13.57
2019-02-22T12:50:16.076Z,12.53
2019-02-22T12:52:48.119Z,14.03
2019-02-22T12:55:20.131Z,11.07
2019-02-22T12:57:52.219Z,12.00
2019-02-22T13:00:24.286Z,10.90
2019-02-22T13:03:01.966Z,11.27
2019-02-22T13:05:30.237Z,11.17
2019-02-22T13:08:03.977Z,9.23
2019-02-22T13:10:36.022Z,10.60
2019-02-22T13:13:08.186Z,10.00
2019-02-22T13:15:40.207Z,9.90
2019-02-22T13:18:12.208Z,10.30
2019-02-22T13:20:45.583Z,10.00
2019-02-22T13:23:17.784Z,11.80
2019-02-22T13:25:49.781Z,11.20
2019-02-22T13:28:21.836Z,8.93
2019-02-22T13:30:55.646Z,10.30
2019-02-22T13:33:27.683Z,9.80
2019-02-22T13:36:01.095Z,9.70
2019-02-22T13:38:33.203Z,8.30
2019-02-22T13:41:05.223Z,8.73
2019-02-22T13:43:37.268Z,9.37
2019-02-22T13:46:09.298Z,9.00
2019-02-22T13:48:43.114Z,9.00
2019-02-22T13:51:15.092Z,8.87
2019-02-22T13:53:47.184Z,9.83
2019-02-22T13:56:29.242Z,9.50
2019-02-22T13:58:53.159Z,10.07
2019-02-22T14:01:26.221Z,10.27
2019-02-22T14:03:58.429Z,9.47
2019-02-22T14:06:30.477Z,8.97
2019-02-22T14:09:04.405Z,10.20
2019-02-22T14:11:36.418Z,9.47
2019-02-22T14:14:08.466Z,10.37
2019-02-22T14:16:40.493Z,10.40
2019-02-22T14:19:12.491Z,10.07
2019-02-22T14:21:44.642Z,9.90
2019-02-22T14:24:16.618Z,9.73
2019-02-22T14:26:48.644Z,11.23
2019-02-22T14:29:22.864Z,9.73
2019-02-22T14:31:54.543Z,8.57
2019-02-22T14:34:26.576Z,7.33
2019-02-22T14:36:58.715Z,8.20
2019-02-22T14:39:30.692Z,8.27
2019-02-22T14:42:02.736Z,8.17
2019-02-22T14:44:35.058Z,9.40
2019-02-22T14:47:07.086Z,8.60
2019-02-22T14:49:39.295Z,9.17
2019-02-22T14:52:12.814Z,9.83
2019-02-22T14:54:44.941Z,7.90
2019-02-22T14:57:17.335Z,7.23
2019-02-22T14:59:49.555Z,8.50
2019-02-22T15:02:21.562Z,8.00
2019-02-22T15:04:53.523Z,8.77
2019-02-22T15:07:25.785Z,9.00
2019-02-22T15:09:59.030Z,6.40
2019-02-22T15:12:31.230Z,7.60
2019-02-22T15:15:04.186Z,7.13
2019-02-22T15:17:44.401Z,6.53
2019-02-22T15:20:16.431Z,6.63
2019-02-22T15:22:48.506Z,6.97
2019-02-22T15:25:20.492Z,6.80
2019-02-22T15:27:52.884Z,6.30
2019-02-22T15:30:24.888Z,6.77
2019-02-22T15:32:56.952Z,5.90
2019-02-22T15:35:28.941Z,6.30
2019-02-22T15:38:01.003Z,6.60
2019-02-22T15:40:33.064Z,6.57
2019-02-22T15:43:05.118Z,7.57
2019-02-22T15:45:37.162Z,6.63
2019-02-22T15:48:09.185Z,6.90
2019-02-22T15:50:41.471Z,6.13
2019-02-22T15:53:13.526Z,7.00
2019-02-22T15:55:45.552Z,6.87
2019-02-22T15:58:17.584Z,5.90
2019-02-22T16:00:50.668Z,6.00
2019-02-22T16:03:24.194Z,6.53
2019-02-22T16:05:57.590Z,7.50
2019-02-22T16:08:29.597Z,6.50
2019-02-22T16:11:01.646Z,5.60
2019-02-22T16:13:33.861Z,5.67
2019-02-22T16:16:06.014Z,5.83
2019-02-22T16:18:38.039Z,5.93
2019-02-22T16:21:10.125Z,5.23
2019-02-22T16:23:42.330Z,5.60
2019-02-22T16:26:16.278Z,6.30
2019-02-22T16:28:48.375Z,6.93
2019-02-22T16:31:22.221Z,6.93
2019-02-22T16:33:54.289Z,5.77
2019-02-22T16:36:26.347Z,6.47
2019-02-22T16:39:00.188Z,6.57
2019-02-22T16:41:32.193Z,6.30
2019-02-22T16:44:06.000Z,7.10
2019-02-22T16:46:38.009Z,5.90
2019-02-22T16:49:10.002Z,7.23
2019-02-22T16:51:42.325Z,5.97
2019-02-22T16:54:14.390Z,5.40
2019-02-22T16:56:46.567Z,5.63
2019-02-22T16:59:18.681Z,5.67
2019-02-22T17:01:50.746Z,7.00
2019-02-22T17:04:22.742Z,7.80
2019-02-22T17:06:55.032Z,6.57
2019-02-22T17:09:27.009Z,8.30
2019-02-22T17:12:06.330Z,6.43
2019-02-22T17:14:34.373Z,7.00
2019-02-22T17:17:06.443Z,7.17
2019-02-22T17:19:38.511Z,7.53
2019-02-22T17:22:10.571Z,7.73
2019-02-22T17:24:42.575Z,8.10
2019-02-22T17:27:14.709Z,7.77
2019-02-22T17:29:46.699Z,7.73
2019-02-22T17:32:18.916Z,7.20
2019-02-22T17:34:52.045Z,9.43
2019-02-22T17:37:24.113Z,10.43
2019-02-22T17:39:56.164Z,10.80
2019-02-22T17:42:28.380Z,8.77
2019-02-22T17:45:00.427Z,8.90
2019-02-22T17:47:32.660Z,12.40
2019-02-22T17:50:05.087Z,12.37
2019-02-22T17:52:38.958Z,13.73
2019-02-22T17:55:10.971Z,12.73
2019-02-22T17:57:43.023Z,9.40
2019-02-22T18:00:16.991Z,11.03
2019-02-22T18:02:49.074Z,9.80
2019-02-22T18:05:21.109Z,10.97
2019-02-22T18:07:53.230Z,9.63
2019-02-22T18:10:25.257Z,10.80
2019-02-22T18:12:57.292Z,8.67
2019-02-22T18:15:29.442Z,7.17
2019-02-22T18:18:01.536Z,7.87
2019-02-22T18:20:33.536Z,9.57
2019-02-22T18:23:05.608Z,9.90
2019-02-22T18:25:37.635Z,10.90
2019-02-22T18:28:09.747Z,10.50
2019-02-22T18:30:41.999Z,10.50
2019-02-22T18:33:14.023Z,10.63
2019-02-22T18:35:46.202Z,9.83
2019-02-22T18:38:19.297Z,9.70
2019-02-22T18:40:51.312Z,10.43
2019-02-22T18:43:23.381Z,14.83
2019-02-22T18:45:55.547Z,12.00
2019-02-22T18:48:27.594Z,9.87
2019-02-22T18:51:01.442Z,10.13
2019-02-22T18:53:33.478Z,10.30
2019-02-22T18:56:07.393Z,9.33
2019-02-22T18:58:39.461Z,8.57
2019-02-22T19:01:11.479Z,8.90
2019-02-22T19:03:43.491Z,10.63
2019-02-22T19:06:15.598Z,11.13
2019-02-22T19:08:47.700Z,9.73
2019-02-22T19:11:19.852Z,10.83
2019-02-22T19:13:51.945Z,9.07
2019-02-22T19:16:24.121Z,9.40
2019-02-22T19:18:56.143Z,8.83
2019-02-22T19:21:28.251Z,9.43
2019-02-22T19:24:00.401Z,8.63
2019-02-22T19:26:32.831Z,9.83
2019-02-22T19:29:04.913Z,10.47
2019-02-22T19:31:36.992Z,11.30
2019-02-22T19:34:09.065Z,9.23
2019-02-22T19:36:41.104Z,8.63
2019-02-22T19:39:13.848Z,9.33
2019-02-22T19:41:45.968Z,8.60
2019-02-22T19:44:18.022Z,9.73
2019-02-22T19:46:50.147Z,10.80
2019-02-22T19:49:22.539Z,10.00
2019-02-22T19:51:54.646Z,12.03
2019-02-22T19:54:26.806Z,11.17
2019-02-22T19:56:58.859Z,10.53
2019-02-22T19:59:30.923Z,10.40
2019-02-22T20:02:03.057Z,9.23
2019-02-22T20:04:36.587Z,8.83
2019-02-22T20:07:08.808Z,10.13
2019-02-22T20:09:42.219Z,9.23
2019-02-22T20:12:14.384Z,10.20
2019-02-22T20:14:46.485Z,11.07
2019-02-22T20:17:18.720Z,11.20
2019-02-22T20:19:50.941Z,10.03
2019-02-22T20:22:23.007Z,10.47
2019-02-22T20:24:55.269Z,11.27
2019-02-22T20:27:27.390Z,10.77
2019-02-22T20:29:59.972Z,10.70
2019-02-22T20:32:32.127Z,10.60
2019-02-22T20:35:06.376Z,10.30
2019-02-22T20:37:39.018Z,9.50
2019-02-22T20:40:11.196Z,9.53
2019-02-22T20:42:46.326Z,10.83
2019-02-22T20:45:18.538Z,10.53
2019-02-22T20:47:50.587Z,10.60
2019-02-22T20:50:22.775Z,8.87
2019-02-22T20:52:55.917Z,11.13
2019-02-22T20:55:27.968Z,10.73
2019-02-22T20:58:01.108Z,11.53
2019-02-22T21:00:40.408Z,10.80
2019-02-22T21:03:12.440Z,11.80
2019-02-22T21:05:44.708Z,11.47
2019-02-22T21:08:16.861Z,10.33
2019-02-22T21:10:50.140Z,10.50
2019-02-22T21:13:22.250Z,9.23
2019-02-22T21:15:54.368Z,11.50
2019-02-22T21:18:26.429Z,11.13
2019-02-22T21:20:58.483Z,11.53
2019-02-22T21:23:33.541Z,10.33
2019-02-22T21:26:05.657Z,12.77
2019-02-22T21:28:38.802Z,12.17
2019-02-22T21:31:11.083Z,12.73
2019-02-22T21:33:46.325Z,12.20
2019-02-22T21:36:20.326Z,13.83
2019-02-22T21:38:52.349Z,12.20
2019-02-22T21:41:24.514Z,17.13
2019-02-22T21:43:58.331Z,14.27
2019-02-22T21:46:30.363Z,14.93
2019-02-22T21:49:02.372Z,15.73
2019-02-22T21:51:36.571Z,14.73
2019-02-22T21:54:08.816Z,15.37
2019-02-22T21:56:40.894Z,15.47
2019-02-22T21:59:15.682Z,14.53
2019-02-22T22:01:47.753Z,11.83
2019-02-22T22:04:19.790Z,13.93
2019-02-22T22:06:51.847Z,12.07
2019-02-22T22:09:24.076Z,12.03
2019-02-22T22:11:56.193Z,14.63
2019-02-22T22:14:28.228Z,14.80
2019-02-22T22:17:00.280Z,15.60
2019-02-22T22:19:32.337Z,14.57
2019-02-22T22:22:04.523Z,15.47
2019-02-22T22:24:39.273Z,14.13
2019-02-22T22:27:11.399Z,12.83
2019-02-22T22:29:43.480Z,13.93
2019-02-22T22:32:15.552Z,15.30
2019-02-22T22:34:49.616Z,14.17
2019-02-22T22:37:21.638Z,16.23
2019-02-22T22:39:55.494Z,15.40
2019-02-22T22:42:27.524Z,18.73
2019-02-22T22:44:59.637Z,16.10
2019-02-22T22:47:31.623Z,16.27
2019-02-22T22:50:04.402Z,15.07
2019-02-22T22:52:36.362Z,14.73
2019-02-22T22:55:08.813Z,13.10
2019-02-22T22:57:40.808Z,13.57
2019-02-22T23:00:58.997Z,13.33
2019-02-22T23:03:31.043Z,14.47
2019-02-22T23:06:03.586Z,13.40
2019-02-22T23:08:35.637Z,12.50
2019-02-22T23:11:07.649Z,13.93
2019-02-22T23:13:39.645Z,15.17
2019-02-22T23:16:12.184Z,13.00
2019-02-22T23:18:44.218Z,15.80
2019-02-22T23:21:16.238Z,16.27
2019-02-22T23:23:48.271Z,15.33
2019-02-22T23:26:20.256Z,14.53
2019-02-22T23:28:52.323Z,13.13
2019-02-22T23:31:24.439Z,14.53
2019-02-22T23:33:56.428Z,14.67
2019-02-22T23:36:28.463Z,14.80
2019-02-22T23:39:00.467Z,17.00
2019-02-22T23:41:32.497Z,16.33
2019-02-22T23:44:04.617Z,14.77
2019-02-22T23:46:36.681Z,13.33
2019-02-22T23:49:13.229Z,15.97
2019-02-22T23:51:42.551Z,15.27
2019-02-22T23:54:14.527Z,14.97
2019-02-22T23:56:46.553Z,14.63
2019-02-22T23:59:18.561Z,13.60
